sensor_id;sensor_type;location;lat;lon;timestamp;P1;durP1;ratioP1;P2;durP2;ratioP2
15012;SDS011;7603;49.432;11.418;2023-08-07T00:00:29;1.10;;;1.10;;
15012;SDS011;7603;49.432;11.418;2023-08-07T00:02:55;1.35;;;1.25;;
15012;SDS011;7603;49.432;11.418;2023-08-07T00:05:20;0.98;;;0.98;;
15012;SDS011;7603;49.432;11.418;2023-08-07T00:07:46;1.20;;;1.20;;
15012;SDS011;7603;49.432;11.418;2023-08-07T00:10:12;1.05;;;1.05;;
15012;SDS011;7603;49.432;11.418;2023-08-07T00:12:38;0.90;;;0.90;;
15012;SDS011;7603;49.432;11.418;2023-08-07T00:15:04;0.80;;;0.80;;
15012;SDS011;7603;49.432;11.418;2023-08-07T00:17:30;1.10;;;1.10;;
15012;SDS011;7603;49.432;11.418;2023-08-07T00:19:56;1.38;;;0.90;;
15012;SDS011;7603;49.432;11.418;2023-08-07T00:22:22;1.63;;;1.10;;
15012;SDS011;7603;49.432;11.418;2023-08-07T00:24:48;4.82;;;1.33;;
15012;SDS011;7603;49.432;11.418;2023-08-07T00:27:13;0.80;;;0.80;;
15012;SDS011;7603;49.432;11.418;2023-08-07T00:29:39;0.88;;;0.88;;
15012;SDS011;7603;49.432;11.418;2023-08-07T00:32:05;0.60;;;0.60;;
15012;SDS011;7603;49.432;11.418;2023-08-07T00:34:31;0.80;;;0.80;;
15012;SDS011;7603;49.432;11.418;2023-08-07T00:36:57;0.80;;;0.80;;
15012;SDS011;7603;49.432;11.418;2023-08-07T00:39:23;0.60;;;0.60;;
15012;SDS011;7603;49.432;11.418;2023-08-07T00:41:49;0.68;;;0.68;;
15012;SDS011;7603;49.432;11.418;2023-08-07T00:44:14;0.70;;;0.70;;
15012;SDS011;7603;49.432;11.418;2023-08-07T00:46:40;0.70;;;0.70;;
15012;SDS011;7603;49.432;11.418;2023-08-07T00:49:07;1.00;;;0.70;;
15012;SDS011;7603;49.432;11.418;2023-08-07T00:51:35;0.68;;;0.60;;
15012;SDS011;7603;49.432;11.418;2023-08-07T00:54:02;0.70;;;0.70;;
15012;SDS011;7603;49.432;11.418;2023-08-07T00:56:30;0.63;;;0.63;;
15012;SDS011;7603;49.432;11.418;2023-08-07T00:58:57;0.63;;;0.63;;
15012;SDS011;7603;49.432;11.418;2023-08-07T01:01:25;0.50;;;0.50;;
15012;SDS011;7603;49.432;11.418;2023-08-07T01:03:51;0.73;;;0.73;;
15012;SDS011;7603;49.432;11.418;2023-08-07T01:06:17;0.70;;;0.60;;
15012;SDS011;7603;49.432;11.418;2023-08-07T01:08:42;1.48;;;0.70;;
15012;SDS011;7603;49.432;11.418;2023-08-07T01:16:10;1.45;;;0.60;;
15012;SDS011;7603;49.432;11.418;2023-08-07T01:18:42;0.98;;;0.90;;
15012;SDS011;7603;49.432;11.418;2023-08-07T01:21:19;0.50;;;0.50;;
15012;SDS011;7603;49.432;11.418;2023-08-07T01:23:46;0.70;;;0.70;;
15012;SDS011;7603;49.432;11.418;2023-08-07T01:26:12;0.50;;;0.50;;
15012;SDS011;7603;49.432;11.418;2023-08-07T01:28:40;0.50;;;0.50;;
15012;SDS011;7603;49.432;11.418;2023-08-07T01:31:11;1.30;;;0.80;;
15012;SDS011;7603;49.432;11.418;2023-08-07T01:33:47;0.50;;;0.50;;
15012;SDS011;7603;49.432;11.418;2023-08-07T01:36:21;0.63;;;0.63;;
15012;SDS011;7603;49.432;11.418;2023-08-07T01:38:49;0.70;;;0.70;;
15012;SDS011;7603;49.432;11.418;2023-08-07T01:41:17;0.55;;;0.55;;
15012;SDS011;7603;49.432;11.418;2023-08-07T01:43:43;0.60;;;0.60;;
15012;SDS011;7603;49.432;11.418;2023-08-07T01:46:09;0.50;;;0.50;;
15012;SDS011;7603;49.432;11.418;2023-08-07T01:48:35;0.68;;;0.68;;
15012;SDS011;7603;49.432;11.418;2023-08-07T01:51:01;0.60;;;0.60;;
15012;SDS011;7603;49.432;11.418;2023-08-07T01:53:26;0.88;;;0.70;;
15012;SDS011;7603;49.432;11.418;2023-08-07T01:55:52;0.57;;;0.57;;
15012;SDS011;7603;49.432;11.418;2023-08-07T01:58:18;0.70;;;0.70;;
15012;SDS011;7603;49.432;11.418;2023-08-07T02:00:43;0.70;;;0.70;;
15012;SDS011;7603;49.432;11.418;2023-08-07T02:03:09;0.82;;;0.82;;
15012;SDS011;7603;49.432;11.418;2023-08-07T02:05:34;0.82;;;0.82;;
15012;SDS011;7603;49.432;11.418;2023-08-07T02:08:00;0.75;;;0.75;;
15012;SDS011;7603;49.432;11.418;2023-08-07T02:10:25;0.90;;;0.90;;
15012;SDS011;7603;49.432;11.418;2023-08-07T02:12:51;0.70;;;0.70;;
15012;SDS011;7603;49.432;11.418;2023-08-07T02:15:17;0.70;;;0.70;;
15012;SDS011;7603;49.432;11.418;2023-08-07T02:17:42;0.70;;;0.70;;
15012;SDS011;7603;49.432;11.418;2023-08-07T02:20:08;1.00;;;1.00;;
15012;SDS011;7603;49.432;11.418;2023-08-07T02:22:34;0.77;;;0.77;;
15012;SDS011;7603;49.432;11.418;2023-08-07T02:25:00;2.70;;;0.82;;
15012;SDS011;7603;49.432;11.418;2023-08-07T02:27:25;0.85;;;0.85;;
15012;SDS011;7603;49.432;11.418;2023-08-07T02:29:51;0.95;;;0.95;;
15012;SDS011;7603;49.432;11.418;2023-08-07T02:32:17;0.80;;;0.80;;
15012;SDS011;7603;49.432;11.418;2023-08-07T02:34:42;0.77;;;0.77;;
15012;SDS011;7603;49.432;11.418;2023-08-07T02:37:09;0.80;;;0.80;;
15012;SDS011;7603;49.432;11.418;2023-08-07T02:39:35;0.80;;;0.80;;
15012;SDS011;7603;49.432;11.418;2023-08-07T02:42:00;1.75;;;0.90;;
15012;SDS011;7603;49.432;11.418;2023-08-07T02:44:26;0.90;;;0.90;;
15012;SDS011;7603;49.432;11.418;2023-08-07T02:46:51;0.70;;;0.70;;
15012;SDS011;7603;49.432;11.418;2023-08-07T02:49:17;0.95;;;0.95;;
15012;SDS011;7603;49.432;11.418;2023-08-07T02:51:42;0.63;;;0.63;;
15012;SDS011;7603;49.432;11.418;2023-08-07T02:54:08;1.27;;;1.17;;
15012;SDS011;7603;49.432;11.418;2023-08-07T02:56:34;0.80;;;0.80;;
15012;SDS011;7603;49.432;11.418;2023-08-07T02:58:59;1.00;;;1.00;;
15012;SDS011;7603;49.432;11.418;2023-08-07T03:01:28;0.90;;;0.90;;
15012;SDS011;7603;49.432;11.418;2023-08-07T03:03:54;1.00;;;1.00;;
15012;SDS011;7603;49.432;11.418;2023-08-07T03:06:20;1.40;;;1.20;;
15012;SDS011;7603;49.432;11.418;2023-08-07T03:08:45;1.45;;;1.38;;
15012;SDS011;7603;49.432;11.418;2023-08-07T03:11:11;1.10;;;1.10;;
15012;SDS011;7603;49.432;11.418;2023-08-07T03:13:36;1.75;;;1.65;;
15012;SDS011;7603;49.432;11.418;2023-08-07T03:16:03;1.17;;;1.08;;
15012;SDS011;7603;49.432;11.418;2023-08-07T03:18:30;0.80;;;0.80;;
15012;SDS011;7603;49.432;11.418;2023-08-07T03:20:56;1.25;;;1.00;;
15012;SDS011;7603;49.432;11.418;2023-08-07T03:23:22;1.30;;;1.20;;
15012;SDS011;7603;49.432;11.418;2023-08-07T03:26:01;1.95;;;1.25;;
15012;SDS011;7603;49.432;11.418;2023-08-07T03:28:31;1.05;;;1.05;;
15012;SDS011;7603;49.432;11.418;2023-08-07T03:30:57;1.75;;;1.42;;
15012;SDS011;7603;49.432;11.418;2023-08-07T03:33:23;1.50;;;1.40;;
15012;SDS011;7603;49.432;11.418;2023-08-07T03:35:49;1.20;;;1.20;;
15012;SDS011;7603;49.432;11.418;2023-08-07T03:38:14;1.15;;;1.15;;
15012;SDS011;7603;49.432;11.418;2023-08-07T03:40:40;1.70;;;1.20;;
15012;SDS011;7603;49.432;11.418;2023-08-07T03:43:06;1.27;;;1.27;;
15012;SDS011;7603;49.432;11.418;2023-08-07T03:45:31;1.60;;;1.50;;
15012;SDS011;7603;49.432;11.418;2023-08-07T03:47:57;3.80;;;1.63;;
15012;SDS011;7603;49.432;11.418;2023-08-07T03:50:22;1.05;;;1.05;;
15012;SDS011;7603;49.432;11.418;2023-08-07T03:52:48;1.00;;;1.00;;
15012;SDS011;7603;49.432;11.418;2023-08-07T03:55:13;1.73;;;1.63;;
15012;SDS011;7603;49.432;11.418;2023-08-07T03:57:39;1.30;;;1.30;;
15012;SDS011;7603;49.432;11.418;2023-08-07T04:00:05;2.00;;;1.90;;
15012;SDS011;7603;49.432;11.418;2023-08-07T04:02:31;1.77;;;1.67;;
15012;SDS011;7603;49.432;11.418;2023-08-07T04:04:56;1.67;;;1.58;;
15012;SDS011;7603;49.432;11.418;2023-08-07T04:07:22;1.75;;;1.65;;
15012;SDS011;7603;49.432;11.418;2023-08-07T04:09:48;1.80;;;1.80;;
15012;SDS011;7603;49.432;11.418;2023-08-07T04:12:13;1.40;;;1.30;;
15012;SDS011;7603;49.432;11.418;2023-08-07T04:14:39;2.08;;;1.98;;
15012;SDS011;7603;49.432;11.418;2023-08-07T04:17:04;2.25;;;1.90;;
15012;SDS011;7603;49.432;11.418;2023-08-07T04:19:30;1.65;;;1.55;;
15012;SDS011;7603;49.432;11.418;2023-08-07T04:21:56;1.70;;;1.60;;
15012;SDS011;7603;49.432;11.418;2023-08-07T04:24:21;2.28;;;2.17;;
15012;SDS011;7603;49.432;11.418;2023-08-07T04:26:47;2.03;;;1.92;;
15012;SDS011;7603;49.432;11.418;2023-08-07T04:29:12;2.17;;;1.85;;
15012;SDS011;7603;49.432;11.418;2023-08-07T04:31:38;2.40;;;1.98;;
15012;SDS011;7603;49.432;11.418;2023-08-07T04:34:03;2.65;;;2.40;;
15012;SDS011;7603;49.432;11.418;2023-08-07T04:36:29;2.03;;;1.92;;
15012;SDS011;7603;49.432;11.418;2023-08-07T04:38:55;4.10;;;3.72;;
15012;SDS011;7603;49.432;11.418;2023-08-07T04:41:21;4.20;;;3.42;;
15012;SDS011;7603;49.432;11.418;2023-08-07T04:43:47;2.47;;;2.25;;
15012;SDS011;7603;49.432;11.418;2023-08-07T04:46:13;3.05;;;2.58;;
15012;SDS011;7603;49.432;11.418;2023-08-07T04:48:39;4.10;;;2.38;;
15012;SDS011;7603;49.432;11.418;2023-08-07T04:51:05;4.32;;;2.60;;
15012;SDS011;7603;49.432;11.418;2023-08-07T04:53:31;2.53;;;2.42;;
15012;SDS011;7603;49.432;11.418;2023-08-07T04:55:56;3.40;;;2.50;;
15012;SDS011;7603;49.432;11.418;2023-08-07T04:58:23;3.38;;;2.70;;
15012;SDS011;7603;49.432;11.418;2023-08-07T05:00:53;6.88;;;2.50;;
15012;SDS011;7603;49.432;11.418;2023-08-07T05:03:23;6.55;;;2.50;;
15012;SDS011;7603;49.432;11.418;2023-08-07T05:05:49;2.60;;;2.40;;
15012;SDS011;7603;49.432;11.418;2023-08-07T05:08:14;2.10;;;1.33;;
15012;SDS011;7603;49.432;11.418;2023-08-07T05:10:41;3.40;;;3.10;;
15012;SDS011;7603;49.432;11.418;2023-08-07T05:13:06;2.97;;;2.65;;
15012;SDS011;7603;49.432;11.418;2023-08-07T05:15:32;2.75;;;2.58;;
15012;SDS011;7603;49.432;11.418;2023-08-07T05:17:57;3.78;;;2.58;;
15012;SDS011;7603;49.432;11.418;2023-08-07T05:20:23;6.50;;;2.88;;
15012;SDS011;7603;49.432;11.418;2023-08-07T05:22:49;3.83;;;2.58;;
15012;SDS011;7603;49.432;11.418;2023-08-07T05:25:15;3.50;;;3.20;;
15012;SDS011;7603;49.432;11.418;2023-08-07T05:27:42;2.80;;;2.60;;
15012;SDS011;7603;49.432;11.418;2023-08-07T05:30:08;3.65;;;3.20;;
15012;SDS011;7603;49.432;11.418;2023-08-07T05:32:35;3.20;;;2.90;;
15012;SDS011;7603;49.432;11.418;2023-08-07T05:35:03;3.15;;;2.80;;
15012;SDS011;7603;49.432;11.418;2023-08-07T05:37:30;2.30;;;2.10;;
15012;SDS011;7603;49.432;11.418;2023-08-07T05:39:56;4.85;;;4.38;;
15012;SDS011;7603;49.432;11.418;2023-08-07T05:42:22;4.72;;;4.22;;
15012;SDS011;7603;49.432;11.418;2023-08-07T05:44:48;4.00;;;3.10;;
15012;SDS011;7603;49.432;11.418;2023-08-07T05:47:14;3.13;;;2.53;;
15012;SDS011;7603;49.432;11.418;2023-08-07T05:49:39;4.15;;;2.88;;
15012;SDS011;7603;49.432;11.418;2023-08-07T05:52:05;4.40;;;3.20;;
15012;SDS011;7603;49.432;11.418;2023-08-07T05:54:31;4.97;;;2.97;;
15012;SDS011;7603;49.432;11.418;2023-08-07T05:56:56;4.75;;;3.30;;
15012;SDS011;7603;49.432;11.418;2023-08-07T05:59:22;4.40;;;2.85;;
15012;SDS011;7603;49.432;11.418;2023-08-07T06:01:48;3.03;;;2.83;;
15012;SDS011;7603;49.432;11.418;2023-08-07T06:04:13;3.50;;;3.25;;
15012;SDS011;7603;49.432;11.418;2023-08-07T06:06:39;4.13;;;2.90;;
15012;SDS011;7603;49.432;11.418;2023-08-07T06:09:05;3.97;;;3.65;;
15012;SDS011;7603;49.432;11.418;2023-08-07T06:11:32;4.10;;;3.20;;
15012;SDS011;7603;49.432;11.418;2023-08-07T06:13:58;3.85;;;3.40;;
15012;SDS011;7603;49.432;11.418;2023-08-07T06:16:23;2.95;;;1.98;;
15012;SDS011;7603;49.432;11.418;2023-08-07T06:18:49;3.40;;;3.10;;
15012;SDS011;7603;49.432;11.418;2023-08-07T06:21:15;6.40;;;3.47;;
15012;SDS011;7603;49.432;11.418;2023-08-07T06:23:40;3.63;;;3.33;;
15012;SDS011;7603;49.432;11.418;2023-08-07T06:26:07;3.50;;;3.20;;
15012;SDS011;7603;49.432;11.418;2023-08-07T06:28:33;4.10;;;3.30;;
15012;SDS011;7603;49.432;11.418;2023-08-07T06:31:05;3.05;;;2.85;;
15012;SDS011;7603;49.432;11.418;2023-08-07T06:33:32;4.57;;;2.70;;
15012;SDS011;7603;49.432;11.418;2023-08-07T06:35:59;3.75;;;3.00;;
15012;SDS011;7603;49.432;11.418;2023-08-07T06:38:25;3.13;;;2.92;;
15012;SDS011;7603;49.432;11.418;2023-08-07T06:40:51;2.70;;;2.50;;
15012;SDS011;7603;49.432;11.418;2023-08-07T06:43:16;3.03;;;2.72;;
15012;SDS011;7603;49.432;11.418;2023-08-07T06:45:42;4.18;;;3.28;;
15012;SDS011;7603;49.432;11.418;2023-08-07T06:48:08;3.92;;;3.63;;
15012;SDS011;7603;49.432;11.418;2023-08-07T06:50:33;6.05;;;4.15;;
15012;SDS011;7603;49.432;11.418;2023-08-07T06:52:59;4.10;;;3.15;;
15012;SDS011;7603;49.432;11.418;2023-08-07T06:55:25;5.55;;;3.03;;
15012;SDS011;7603;49.432;11.418;2023-08-07T06:57:51;3.80;;;3.40;;
15012;SDS011;7603;49.432;11.418;2023-08-07T07:00:17;3.95;;;2.63;;
15012;SDS011;7603;49.432;11.418;2023-08-07T07:02:42;3.47;;;3.17;;
15012;SDS011;7603;49.432;11.418;2023-08-07T07:05:08;4.70;;;3.30;;
15012;SDS011;7603;49.432;11.418;2023-08-07T07:07:34;3.03;;;2.70;;
15012;SDS011;7603;49.432;11.418;2023-08-07T07:10:00;4.25;;;3.60;;
15012;SDS011;7603;49.432;11.418;2023-08-07T07:12:29;4.30;;;3.13;;
15012;SDS011;7603;49.432;11.418;2023-08-07T07:14:54;3.33;;;3.03;;
15012;SDS011;7603;49.432;11.418;2023-08-07T07:17:20;2.45;;;1.92;;
15012;SDS011;7603;49.432;11.418;2023-08-07T07:19:46;3.17;;;2.92;;
15012;SDS011;7603;49.432;11.418;2023-08-07T07:22:11;4.50;;;3.88;;
15012;SDS011;7603;49.432;11.418;2023-08-07T07:24:37;9.20;;;3.30;;
15012;SDS011;7603;49.432;11.418;2023-08-07T07:27:03;3.40;;;3.10;;
15012;SDS011;7603;49.432;11.418;2023-08-07T07:29:29;4.97;;;3.20;;
15012;SDS011;7603;49.432;11.418;2023-08-07T07:31:54;3.88;;;2.78;;
15012;SDS011;7603;49.432;11.418;2023-08-07T07:34:20;3.50;;;3.03;;
15012;SDS011;7603;49.432;11.418;2023-08-07T07:36:46;3.63;;;2.83;;
15012;SDS011;7603;49.432;11.418;2023-08-07T07:39:12;3.17;;;2.97;;
15012;SDS011;7603;49.432;11.418;2023-08-07T07:41:37;4.05;;;3.65;;
15012;SDS011;7603;49.432;11.418;2023-08-07T07:44:03;3.70;;;2.95;;
15012;SDS011;7603;49.432;11.418;2023-08-07T07:46:29;3.42;;;3.13;;
15012;SDS011;7603;49.432;11.418;2023-08-07T07:48:56;4.57;;;3.20;;
15012;SDS011;7603;49.432;11.418;2023-08-07T07:51:22;4.35;;;3.83;;
15012;SDS011;7603;49.432;11.418;2023-08-07T07:53:48;8.45;;;7.75;;
15012;SDS011;7603;49.432;11.418;2023-08-07T07:56:14;7.05;;;4.03;;
15012;SDS011;7603;49.432;11.418;2023-08-07T07:58:39;11.38;;;10.57;;
15012;SDS011;7603;49.432;11.418;2023-08-07T08:01:06;6.97;;;4.53;;
15012;SDS011;7603;49.432;11.418;2023-08-07T08:03:32;6.53;;;5.85;;
15012;SDS011;7603;49.432;11.418;2023-08-07T08:05:57;4.38;;;3.97;;
15012;SDS011;7603;49.432;11.418;2023-08-07T08:08:23;5.68;;;4.38;;
15012;SDS011;7603;49.432;11.418;2023-08-07T08:10:49;5.68;;;4.93;;
15012;SDS011;7603;49.432;11.418;2023-08-07T08:13:16;6.55;;;5.20;;
15012;SDS011;7603;49.432;11.418;2023-08-07T08:15:41;3.97;;;3.22;;
15012;SDS011;7603;49.432;11.418;2023-08-07T08:18:07;3.60;;;3.30;;
15012;SDS011;7603;49.432;11.418;2023-08-07T08:20:33;4.05;;;3.67;;
15012;SDS011;7603;49.432;11.418;2023-08-07T08:22:59;7.30;;;3.80;;
15012;SDS011;7603;49.432;11.418;2023-08-07T08:25:24;3.17;;;2.88;;
15012;SDS011;7603;49.432;11.418;2023-08-07T08:27:50;3.70;;;3.40;;
15012;SDS011;7603;49.432;11.418;2023-08-07T08:30:16;7.63;;;6.93;;
15012;SDS011;7603;49.432;11.418;2023-08-07T08:32:42;4.93;;;4.47;;
15012;SDS011;7603;49.432;11.418;2023-08-07T08:35:08;4.78;;;3.58;;
15012;SDS011;7603;49.432;11.418;2023-08-07T08:37:34;4.70;;;3.83;;
15012;SDS011;7603;49.432;11.418;2023-08-07T08:39:59;4.65;;;4.00;;
15012;SDS011;7603;49.432;11.418;2023-08-07T08:42:25;7.15;;;6.45;;
15012;SDS011;7603;49.432;11.418;2023-08-07T08:44:52;4.55;;;3.50;;
15012;SDS011;7603;49.432;11.418;2023-08-07T08:47:20;5.43;;;4.40;;
15012;SDS011;7603;49.432;11.418;2023-08-07T08:49:48;6.35;;;5.65;;
15012;SDS011;7603;49.432;11.418;2023-08-07T08:52:16;5.35;;;4.85;;
15012;SDS011;7603;49.432;11.418;2023-08-07T08:54:42;5.07;;;3.63;;
15012;SDS011;7603;49.432;11.418;2023-08-07T08:57:09;4.60;;;4.15;;
15012;SDS011;7603;49.432;11.418;2023-08-07T08:59:36;7.38;;;5.10;;
15012;SDS011;7603;49.432;11.418;2023-08-07T09:02:02;6.95;;;4.85;;
15012;SDS011;7603;49.432;11.418;2023-08-07T09:04:28;4.70;;;4.20;;
15012;SDS011;7603;49.432;11.418;2023-08-07T09:06:54;5.20;;;4.70;;
15012;SDS011;7603;49.432;11.418;2023-08-07T09:09:20;9.10;;;5.20;;
15012;SDS011;7603;49.432;11.418;2023-08-07T09:11:48;7.25;;;3.63;;
15012;SDS011;7603;49.432;11.418;2023-08-07T09:14:17;7.88;;;3.80;;
15012;SDS011;7603;49.432;11.418;2023-08-07T09:16:47;4.47;;;4.07;;
15012;SDS011;7603;49.432;11.418;2023-08-07T09:19:14;4.28;;;3.92;;
15012;SDS011;7603;49.432;11.418;2023-08-07T09:21:40;8.35;;;7.55;;
15012;SDS011;7603;49.432;11.418;2023-08-07T09:24:06;5.85;;;4.90;;
15012;SDS011;7603;49.432;11.418;2023-08-07T09:26:32;6.25;;;4.55;;
15012;SDS011;7603;49.432;11.418;2023-08-07T09:29:02;5.13;;;3.67;;
15012;SDS011;7603;49.432;11.418;2023-08-07T09:31:28;8.23;;;4.05;;
15012;SDS011;7603;49.432;11.418;2023-08-07T09:33:58;4.70;;;3.70;;
15012;SDS011;7603;49.432;11.418;2023-08-07T09:36:26;5.78;;;5.22;;
15012;SDS011;7603;49.432;11.418;2023-08-07T09:38:54;5.68;;;4.45;;
15012;SDS011;7603;49.432;11.418;2023-08-07T09:41:19;4.72;;;4.32;;
15012;SDS011;7603;49.432;11.418;2023-08-07T09:43:46;6.68;;;6.05;;
15012;SDS011;7603;49.432;11.418;2023-08-07T09:46:12;7.75;;;6.88;;
15012;SDS011;7603;49.432;11.418;2023-08-07T09:48:43;4.75;;;4.30;;
15012;SDS011;7603;49.432;11.418;2023-08-07T09:51:09;4.25;;;3.92;;
15012;SDS011;7603;49.432;11.418;2023-08-07T09:53:35;5.18;;;3.70;;
15012;SDS011;7603;49.432;11.418;2023-08-07T09:56:01;4.20;;;3.90;;
15012;SDS011;7603;49.432;11.418;2023-08-07T09:58:28;4.82;;;4.35;;
15012;SDS011;7603;49.432;11.418;2023-08-07T10:00:54;5.05;;;4.65;;
15012;SDS011;7603;49.432;11.418;2023-08-07T10:03:24;4.40;;;4.00;;
15012;SDS011;7603;49.432;11.418;2023-08-07T10:05:50;7.65;;;4.82;;
15012;SDS011;7603;49.432;11.418;2023-08-07T10:08:16;58.05;;;26.65;;
15012;SDS011;7603;49.432;11.418;2023-08-07T10:10:42;43.08;;;19.40;;
15012;SDS011;7603;49.432;11.418;2023-08-07T10:13:09;5.97;;;5.38;;
15012;SDS011;7603;49.432;11.418;2023-08-07T10:15:38;5.32;;;4.07;;
15012;SDS011;7603;49.432;11.418;2023-08-07T10:18:05;4.47;;;4.18;;
15012;SDS011;7603;49.432;11.418;2023-08-07T10:20:31;4.53;;;4.13;;
15012;SDS011;7603;49.432;11.418;2023-08-07T10:23:04;3.72;;;3.40;;
15012;SDS011;7603;49.432;11.418;2023-08-07T10:25:32;3.78;;;3.58;;
15012;SDS011;7603;49.432;11.418;2023-08-07T10:28:00;4.32;;;3.90;;
15012;SDS011;7603;49.432;11.418;2023-08-07T10:30:29;4.75;;;4.22;;
15012;SDS011;7603;49.432;11.418;2023-08-07T10:32:56;7.28;;;6.50;;
15012;SDS011;7603;49.432;11.418;2023-08-07T10:35:29;5.63;;;4.25;;
15012;SDS011;7603;49.432;11.418;2023-08-07T10:38:04;4.68;;;4.28;;
15012;SDS011;7603;49.432;11.418;2023-08-07T10:40:32;5.45;;;4.60;;
15012;SDS011;7603;49.432;11.418;2023-08-07T10:42:59;5.78;;;5.18;;
15012;SDS011;7603;49.432;11.418;2023-08-07T10:45:36;5.38;;;4.78;;
15012;SDS011;7603;49.432;11.418;2023-08-07T10:50:33;3.97;;;3.67;;
15012;SDS011;7603;49.432;11.418;2023-08-07T10:53:03;3.92;;;3.63;;
15012;SDS011;7603;49.432;11.418;2023-08-07T10:55:45;4.00;;;3.72;;
15012;SDS011;7603;49.432;11.418;2023-08-07T11:01:19;3.42;;;3.10;;
15012;SDS011;7603;49.432;11.418;2023-08-07T11:03:55;3.78;;;3.58;;
15012;SDS011;7603;49.432;11.418;2023-08-07T11:06:21;5.38;;;4.45;;
15012;SDS011;7603;49.432;11.418;2023-08-07T11:08:52;2.72;;;2.53;;
15012;SDS011;7603;49.432;11.418;2023-08-07T11:11:18;5.70;;;4.28;;
15012;SDS011;7603;49.432;11.418;2023-08-07T11:13:44;4.05;;;3.60;;
15012;SDS011;7603;49.432;11.418;2023-08-07T11:16:11;5.40;;;3.97;;
15012;SDS011;7603;49.432;11.418;2023-08-07T11:18:37;4.50;;;4.20;;
15012;SDS011;7603;49.432;11.418;2023-08-07T11:21:06;6.97;;;5.13;;
15012;SDS011;7603;49.432;11.418;2023-08-07T11:23:41;5.65;;;3.60;;
15012;SDS011;7603;49.432;11.418;2023-08-07T11:26:09;6.03;;;3.95;;
15012;SDS011;7603;49.432;11.418;2023-08-07T11:28:35;4.38;;;3.97;;
15012;SDS011;7603;49.432;11.418;2023-08-07T11:31:01;5.07;;;4.30;;
15012;SDS011;7603;49.432;11.418;2023-08-07T11:33:27;4.13;;;3.72;;
15012;SDS011;7603;49.432;11.418;2023-08-07T11:35:54;3.75;;;3.50;;
15012;SDS011;7603;49.432;11.418;2023-08-07T11:38:29;7.43;;;6.82;;
15012;SDS011;7603;49.432;11.418;2023-08-07T11:40:56;4.32;;;4.03;;
15012;SDS011;7603;49.432;11.418;2023-08-07T11:43:24;3.95;;;3.65;;
15012;SDS011;7603;49.432;11.418;2023-08-07T11:45:50;4.53;;;4.22;;
15012;SDS011;7603;49.432;11.418;2023-08-07T11:48:15;4.68;;;4.15;;
15012;SDS011;7603;49.432;11.418;2023-08-07T11:50:41;3.80;;;3.50;;
15012;SDS011;7603;49.432;11.418;2023-08-07T11:53:07;5.32;;;3.95;;
15012;SDS011;7603;49.432;11.418;2023-08-07T11:55:36;5.53;;;4.00;;
15012;SDS011;7603;49.432;11.418;2023-08-07T11:58:04;7.78;;;4.50;;
15012;SDS011;7603;49.432;11.418;2023-08-07T12:00:29;6.80;;;4.03;;
15012;SDS011;7603;49.432;11.418;2023-08-07T12:02:56;3.67;;;3.40;;
15012;SDS011;7603;49.432;11.418;2023-08-07T12:05:22;4.82;;;3.70;;
15012;SDS011;7603;49.432;11.418;2023-08-07T12:07:48;3.35;;;3.08;;
15012;SDS011;7603;49.432;11.418;2023-08-07T12:10:14;3.53;;;3.20;;
15012;SDS011;7603;49.432;11.418;2023-08-07T12:12:40;5.03;;;3.38;;
15012;SDS011;7603;49.432;11.418;2023-08-07T12:15:08;5.82;;;3.92;;
15012;SDS011;7603;49.432;11.418;2023-08-07T12:17:35;4.80;;;3.50;;
15012;SDS011;7603;49.432;11.418;2023-08-07T12:20:02;4.82;;;3.53;;
15012;SDS011;7603;49.432;11.418;2023-08-07T12:22:31;7.15;;;3.67;;
15012;SDS011;7603;49.432;11.418;2023-08-07T12:24:57;3.35;;;3.15;;
15012;SDS011;7603;49.432;11.418;2023-08-07T12:27:22;5.40;;;4.32;;
15012;SDS011;7603;49.432;11.418;2023-08-07T12:29:48;5.15;;;3.83;;
15012;SDS011;7603;49.432;11.418;2023-08-07T12:32:13;3.95;;;3.55;;
15012;SDS011;7603;49.432;11.418;2023-08-07T12:34:39;3.67;;;3.38;;
15012;SDS011;7603;49.432;11.418;2023-08-07T12:37:05;4.13;;;3.60;;
15012;SDS011;7603;49.432;11.418;2023-08-07T12:39:31;4.68;;;3.40;;
15012;SDS011;7603;49.432;11.418;2023-08-07T12:41:57;3.85;;;3.47;;
15012;SDS011;7603;49.432;11.418;2023-08-07T12:44:23;3.40;;;3.08;;
15012;SDS011;7603;49.432;11.418;2023-08-07T12:46:48;4.53;;;3.20;;
15012;SDS011;7603;49.432;11.418;2023-08-07T12:49:14;4.07;;;3.58;;
15012;SDS011;7603;49.432;11.418;2023-08-07T12:51:40;4.20;;;3.80;;
15012;SDS011;7603;49.432;11.418;2023-08-07T12:54:06;4.30;;;3.90;;
15012;SDS011;7603;49.432;11.418;2023-08-07T12:56:31;6.50;;;3.22;;
15012;SDS011;7603;49.432;11.418;2023-08-07T12:58:57;4.15;;;3.20;;
15012;SDS011;7603;49.432;11.418;2023-08-07T13:01:23;6.10;;;3.78;;
15012;SDS011;7603;49.432;11.418;2023-08-07T13:03:48;5.40;;;2.08;;
15012;SDS011;7603;49.432;11.418;2023-08-07T13:06:14;4.57;;;3.75;;
15012;SDS011;7603;49.432;11.418;2023-08-07T13:08:39;2.70;;;2.50;;
15012;SDS011;7603;49.432;11.418;2023-08-07T13:11:05;3.40;;;3.20;;
15012;SDS011;7603;49.432;11.418;2023-08-07T13:13:31;5.18;;;3.20;;
15012;SDS011;7603;49.432;11.418;2023-08-07T13:15:57;3.03;;;2.67;;
15012;SDS011;7603;49.432;11.418;2023-08-07T13:18:23;3.00;;;2.70;;
15012;SDS011;7603;49.432;11.418;2023-08-07T13:20:49;4.75;;;3.00;;
15012;SDS011;7603;49.432;11.418;2023-08-07T13:23:15;4.95;;;2.90;;
15012;SDS011;7603;49.432;11.418;2023-08-07T13:25:41;3.50;;;3.20;;
15012;SDS011;7603;49.432;11.418;2023-08-07T13:28:06;2.35;;;2.22;;
15012;SDS011;7603;49.432;11.418;2023-08-07T13:30:32;2.83;;;2.13;;
15012;SDS011;7603;49.432;11.418;2023-08-07T13:32:58;4.38;;;2.75;;
15012;SDS011;7603;49.432;11.418;2023-08-07T13:35:27;5.32;;;4.63;;
15012;SDS011;7603;49.432;11.418;2023-08-07T13:37:52;3.08;;;2.85;;
15012;SDS011;7603;49.432;11.418;2023-08-07T13:40:18;2.83;;;2.28;;
15012;SDS011;7603;49.432;11.418;2023-08-07T13:42:45;3.20;;;2.75;;
15012;SDS011;7603;49.432;11.418;2023-08-07T13:45:11;2.78;;;2.58;;
15012;SDS011;7603;49.432;11.418;2023-08-07T13:47:38;3.28;;;3.08;;
15012;SDS011;7603;49.432;11.418;2023-08-07T13:50:07;4.88;;;3.13;;
15012;SDS011;7603;49.432;11.418;2023-08-07T13:52:33;3.40;;;3.10;;
15012;SDS011;7603;49.432;11.418;2023-08-07T13:54:59;2.95;;;2.75;;
15012;SDS011;7603;49.432;11.418;2023-08-07T13:57:26;3.38;;;3.03;;
15012;SDS011;7603;49.432;11.418;2023-08-07T13:59:51;4.25;;;2.95;;
15012;SDS011;7603;49.432;11.418;2023-08-07T14:02:19;2.75;;;2.65;;
15012;SDS011;7603;49.432;11.418;2023-08-07T14:04:44;3.78;;;3.17;;
15012;SDS011;7603;49.432;11.418;2023-08-07T14:07:10;2.90;;;2.70;;
15012;SDS011;7603;49.432;11.418;2023-08-07T14:09:36;3.00;;;2.80;;
15012;SDS011;7603;49.432;11.418;2023-08-07T14:12:02;3.00;;;2.78;;
15012;SDS011;7603;49.432;11.418;2023-08-07T14:14:28;7.72;;;7.03;;
15012;SDS011;7603;49.432;11.418;2023-08-07T14:16:54;4.22;;;3.88;;
15012;SDS011;7603;49.432;11.418;2023-08-07T14:19:22;3.22;;;2.90;;
15012;SDS011;7603;49.432;11.418;2023-08-07T14:21:48;3.60;;;3.40;;
15012;SDS011;7603;49.432;11.418;2023-08-07T14:24:14;2.60;;;2.40;;
15012;SDS011;7603;49.432;11.418;2023-08-07T14:26:41;4.00;;;3.28;;
15012;SDS011;7603;49.432;11.418;2023-08-07T14:29:06;3.70;;;3.40;;
15012;SDS011;7603;49.432;11.418;2023-08-07T14:31:32;3.30;;;3.10;;
15012;SDS011;7603;49.432;11.418;2023-08-07T14:33:58;4.00;;;3.10;;
15012;SDS011;7603;49.432;11.418;2023-08-07T14:36:23;5.88;;;3.28;;
15012;SDS011;7603;49.432;11.418;2023-08-07T14:38:49;3.65;;;2.80;;
15012;SDS011;7603;49.432;11.418;2023-08-07T14:41:15;5.15;;;3.85;;
15012;SDS011;7603;49.432;11.418;2023-08-07T14:43:40;4.93;;;3.25;;
15012;SDS011;7603;49.432;11.418;2023-08-07T14:46:06;3.60;;;3.40;;
15012;SDS011;7603;49.432;11.418;2023-08-07T14:48:31;4.35;;;3.30;;
15012;SDS011;7603;49.432;11.418;2023-08-07T14:50:57;6.40;;;4.85;;
15012;SDS011;7603;49.432;11.418;2023-08-07T14:53:23;3.70;;;3.03;;